sensor_id;sensor_type;location;lat;lon;timestamp;temperature;humidity
23729;DHT22;12045;60.214;24.724;2022-12-29T00:01:00;-0.70;99.90
23729;DHT22;12045;60.214;24.724;2022-12-29T00:03:28;-0.80;99.90
23729;DHT22;12045;60.214;24.724;2022-12-29T00:05:56;-0.70;99.90
23729;DHT22;12045;60.214;24.724;2022-12-29T00:08:24;-0.50;99.90
23729;DHT22;12045;60.214;24.724;2022-12-29T00:11:15;-0.50;99.90
23729;DHT22;12045;60.214;24.724;2022-12-29T00:13:43;-0.30;99.90
23729;DHT22;12045;60.214;24.724;2022-12-29T00:16:30;-0.20;99.90
23729;DHT22;12045;60.214;24.724;2022-12-29T00:18:58;-0.50;99.90
23729;DHT22;12045;60.214;24.724;2022-12-29T00:21:26;-0.50;99.90
23729;DHT22;12045;60.214;24.724;2022-12-29T00:24:18;-0.10;99.90
23729;DHT22;12045;60.214;24.724;2022-12-29T00:27:10;0.10;99.90
23729;DHT22;12045;60.214;24.724;2022-12-29T00:29:57;-0.30;99.90
23729;DHT22;12045;60.214;24.724;2022-12-29T00:32:44;-1.00;99.90
23729;DHT22;12045;60.214;24.724;2022-12-29T00:38:36;-0.30;99.90
23729;DHT22;12045;60.214;24.724;2022-12-29T00:41:23;-0.40;99.90
23729;DHT22;12045;60.214;24.724;2022-12-29T00:44:10;0.70;99.90
23729;DHT22;12045;60.214;24.724;2022-12-29T00:46:40;-0.10;99.90
23729;DHT22;12045;60.214;24.724;2022-12-29T00:49:10;2.00;99.90
23729;DHT22;12045;60.214;24.724;2022-12-29T00:54:25;1.20;99.90
23729;DHT22;12045;60.214;24.724;2022-12-29T00:56:53;0.80;99.90
23729;DHT22;12045;60.214;24.724;2022-12-29T00:59:20;1.10;99.90
23729;DHT22;12045;60.214;24.724;2022-12-29T01:01:48;0.00;99.90
23729;DHT22;12045;60.214;24.724;2022-12-29T01:04:16;0.20;99.90
23729;DHT22;12045;60.214;24.724;2022-12-29T01:06:44;0.40;99.90
23729;DHT22;12045;60.214;24.724;2022-12-29T01:09:11;0.00;99.90
23729;DHT22;12045;60.214;24.724;2022-12-29T01:11:58;0.10;99.90
23729;DHT22;12045;60.214;24.724;2022-12-29T01:14:26;0.20;99.90
23729;DHT22;12045;60.214;24.724;2022-12-29T01:16:55;1.50;99.90
23729;DHT22;12045;60.214;24.724;2022-12-29T01:19:23;1.40;99.90
23729;DHT22;12045;60.214;24.724;2022-12-29T01:21:50;0.20;99.90
23729;DHT22;12045;60.214;24.724;2022-12-29T01:24:19;0.30;99.90
23729;DHT22;12045;60.214;24.724;2022-12-29T01:26:47;1.70;99.90
23729;DHT22;12045;60.214;24.724;2022-12-29T01:29:15;0.30;99.90
23729;DHT22;12045;60.214;24.724;2022-12-29T01:31:44;0.20;99.90
23729;DHT22;12045;60.214;24.724;2022-12-29T01:34:11;1.80;99.90
23729;DHT22;12045;60.214;24.724;2022-12-29T01:36:40;0.40;99.90
23729;DHT22;12045;60.214;24.724;2022-12-29T01:39:07;2.20;99.90
23729;DHT22;12045;60.214;24.724;2022-12-29T01:41:35;0.40;99.90
23729;DHT22;12045;60.214;24.724;2022-12-29T01:44:02;1.70;99.90
23729;DHT22;12045;60.214;24.724;2022-12-29T01:46:41;0.50;99.90
23729;DHT22;12045;60.214;24.724;2022-12-29T01:49:24;0.80;99.90
23729;DHT22;12045;60.214;24.724;2022-12-29T01:51:58;2.00;99.90
23729;DHT22;12045;60.214;24.724;2022-12-29T01:54:52;0.40;99.90
23729;DHT22;12045;60.214;24.724;2022-12-29T01:57:28;1.90;99.90
23729;DHT22;12045;60.214;24.724;2022-12-29T02:00:04;0.60;99.90
23729;DHT22;12045;60.214;24.724;2022-12-29T02:02:33;2.30;99.90
23729;DHT22;12045;60.214;24.724;2022-12-29T02:05:07;0.60;99.90
23729;DHT22;12045;60.214;24.724;2022-12-29T02:07:37;0.80;99.90
23729;DHT22;12045;60.214;24.724;2022-12-29T02:10:05;0.80;99.90
23729;DHT22;12045;60.214;24.724;2022-12-29T02:12:34;0.80;99.90
23729;DHT22;12045;60.214;24.724;2022-12-29T02:15:02;2.80;99.90
23729;DHT22;12045;60.214;24.724;2022-12-29T02:17:57;1.20;99.90
23729;DHT22;12045;60.214;24.724;2022-12-29T02:20:50;2.10;99.90
23729;DHT22;12045;60.214;24.724;2022-12-29T02:41:42;0.90;99.90
23729;DHT22;12045;60.214;24.724;2022-12-29T02:44:16;2.80;99.90
23729;DHT22;12045;60.214;24.724;2022-12-29T02:46:53;0.90;99.90
23729;DHT22;12045;60.214;24.724;2022-12-29T02:49:34;2.60;99.90
23729;DHT22;12045;60.214;24.724;2022-12-29T02:52:09;2.50;99.90
23729;DHT22;12045;60.214;24.724;2022-12-29T02:54:38;2.80;99.90
23729;DHT22;12045;60.214;24.724;2022-12-29T02:57:32;2.00;99.90
23729;DHT22;12045;60.214;24.724;2022-12-29T03:00:17;1.90;99.90
23729;DHT22;12045;60.214;24.724;2022-12-29T03:03:19;1.20;99.90
23729;DHT22;12045;60.214;24.724;2022-12-29T03:06:03;1.30;99.90
23729;DHT22;12045;60.214;24.724;2022-12-29T03:11:07;2.40;99.90
23729;DHT22;12045;60.214;24.724;2022-12-29T03:14:07;1.60;99.90
23729;DHT22;12045;60.214;24.724;2022-12-29T03:16:59;1.40;99.90
23729;DHT22;12045;60.214;24.724;2022-12-29T03:19:37;1.60;99.90
23729;DHT22;12045;60.214;24.724;2022-12-29T03:22:09;1.50;99.90
23729;DHT22;12045;60.214;24.724;2022-12-29T03:27:47;1.40;99.90
23729;DHT22;12045;60.214;24.724;2022-12-29T03:30:17;1.90;99.90
23729;DHT22;12045;60.214;24.724;2022-12-29T03:32:49;1.40;99.90
23729;DHT22;12045;60.214;24.724;2022-12-29T03:35:21;2.10;99.90
23729;DHT22;12045;60.214;24.724;2022-12-29T03:38:16;1.50;99.90
23729;DHT22;12045;60.214;24.724;2022-12-29T03:40:49;1.90;99.90
23729;DHT22;12045;60.214;24.724;2022-12-29T03:43:18;2.90;99.90
23729;DHT22;12045;60.214;24.724;2022-12-29T03:45:46;2.30;99.90
23729;DHT22;12045;60.214;24.724;2022-12-29T03:48:14;1.80;99.90
23729;DHT22;12045;60.214;24.724;2022-12-29T03:50:42;1.80;99.90
23729;DHT22;12045;60.214;24.724;2022-12-29T03:53:09;2.60;99.90
23729;DHT22;12045;60.214;24.724;2022-12-29T03:55:36;1.30;99.90
23729;DHT22;12045;60.214;24.724;2022-12-29T03:58:04;1.60;99.90
23729;DHT22;12045;60.214;24.724;2022-12-29T04:00:32;1.70;99.90
23729;DHT22;12045;60.214;24.724;2022-12-29T04:03:00;3.30;99.90
23729;DHT22;12045;60.214;24.724;2022-12-29T04:05:28;2.60;99.90
23729;DHT22;12045;60.214;24.724;2022-12-29T04:07:55;2.80;99.90
23729;DHT22;12045;60.214;24.724;2022-12-29T04:10:22;2.40;99.90
23729;DHT22;12045;60.214;24.724;2022-12-29T04:12:50;3.00;99.90
23729;DHT22;12045;60.214;24.724;2022-12-29T04:15:17;2.40;99.90
23729;DHT22;12045;60.214;24.724;2022-12-29T04:17:45;2.10;99.90
23729;DHT22;12045;60.214;24.724;2022-12-29T04:20:12;2.10;99.90
23729;DHT22;12045;60.214;24.724;2022-12-29T04:23:04;2.90;99.90
23729;DHT22;12045;60.214;24.724;2022-12-29T04:25:32;1.80;99.90
23729;DHT22;12045;60.214;24.724;2022-12-29T04:28:00;1.90;99.90
23729;DHT22;12045;60.214;24.724;2022-12-29T04:30:28;2.70;99.90
23729;DHT22;12045;60.214;24.724;2022-12-29T04:32:55;3.20;99.90
23729;DHT22;12045;60.214;24.724;2022-12-29T04:35:23;3.10;99.90
23729;DHT22;12045;60.214;24.724;2022-12-29T04:37:50;3.40;99.90
23729;DHT22;12045;60.214;24.724;2022-12-29T04:40:18;2.00;99.90
23729;DHT22;12045;60.214;24.724;2022-12-29T04:42:45;2.80;99.90
23729;DHT22;12045;60.214;24.724;2022-12-29T04:45:13;2.40;99.90
23729;DHT22;12045;60.214;24.724;2022-12-29T04:47:40;1.70;99.90
23729;DHT22;12045;60.214;24.724;2022-12-29T04:50:08;1.80;99.90
23729;DHT22;12045;60.214;24.724;2022-12-29T04:52:36;1.70;99.90
23729;DHT22;12045;60.214;24.724;2022-12-29T04:55:04;2.80;99.90
23729;DHT22;12045;60.214;24.724;2022-12-29T04:57:32;1.70;99.90
23729;DHT22;12045;60.214;24.724;2022-12-29T04:59:59;1.30;99.90
23729;DHT22;12045;60.214;24.724;2022-12-29T05:02:27;1.70;99.90
23729;DHT22;12045;60.214;24.724;2022-12-29T05:04:54;1.50;99.90
23729;DHT22;12045;60.214;24.724;2022-12-29T05:07:22;1.30;99.90
23729;DHT22;12045;60.214;24.724;2022-12-29T05:09:49;1.60;99.90
23729;DHT22;12045;60.214;24.724;2022-12-29T05:12:17;2.30;99.90
23729;DHT22;12045;60.214;24.724;2022-12-29T05:14:44;2.80;99.90
23729;DHT22;12045;60.214;24.724;2022-12-29T05:17:12;3.20;99.90
23729;DHT22;12045;60.214;24.724;2022-12-29T05:19:39;2.90;99.90
23729;DHT22;12045;60.214;24.724;2022-12-29T05:22:07;3.70;99.90
23729;DHT22;12045;60.214;24.724;2022-12-29T05:24:34;1.60;99.90
23729;DHT22;12045;60.214;24.724;2022-12-29T05:27:02;1.70;99.90
23729;DHT22;12045;60.214;24.724;2022-12-29T05:29:29;2.50;99.90
23729;DHT22;12045;60.214;24.724;2022-12-29T05:31:57;2.20;99.90
23729;DHT22;12045;60.214;24.724;2022-12-29T05:34:24;2.60;99.90
23729;DHT22;12045;60.214;24.724;2022-12-29T05:36:52;2.40;99.90
23729;DHT22;12045;60.214;24.724;2022-12-29T05:39:19;1.90;99.90
23729;DHT22;12045;60.214;24.724;2022-12-29T05:41:47;2.10;99.90
23729;DHT22;12045;60.214;24.724;2022-12-29T05:44:14;2.60;99.90
23729;DHT22;12045;60.214;24.724;2022-12-29T05:46:44;3.20;99.90
23729;DHT22;12045;60.214;24.724;2022-12-29T05:49:11;2.20;99.90
23729;DHT22;12045;60.214;24.724;2022-12-29T05:51:40;2.40;99.90
23729;DHT22;12045;60.214;24.724;2022-12-29T05:54:07;3.30;99.90
23729;DHT22;12045;60.214;24.724;2022-12-29T05:56:35;2.90;99.90
23729;DHT22;12045;60.214;24.724;2022-12-29T05:59:02;2.50;99.90
23729;DHT22;12045;60.214;24.724;2022-12-29T06:01:30;3.30;99.90
23729;DHT22;12045;60.214;24.724;2022-12-29T06:03:58;2.70;99.90
23729;DHT22;12045;60.214;24.724;2022-12-29T06:06:25;1.70;99.90
23729;DHT22;12045;60.214;24.724;2022-12-29T06:08:53;2.90;99.90
23729;DHT22;12045;60.214;24.724;2022-12-29T06:11:20;2.40;99.90
23729;DHT22;12045;60.214;24.724;2022-12-29T06:13:49;3.60;99.90
23729;DHT22;12045;60.214;24.724;2022-12-29T06:16:16;1.80;99.90
23729;DHT22;12045;60.214;24.724;2022-12-29T06:18:44;2.40;99.90
23729;DHT22;12045;60.214;24.724;2022-12-29T06:21:11;2.10;99.90
23729;DHT22;12045;60.214;24.724;2022-12-29T06:23:39;2.40;99.90
23729;DHT22;12045;60.214;24.724;2022-12-29T06:26:06;2.80;99.90
23729;DHT22;12045;60.214;24.724;2022-12-29T06:28:33;2.50;99.90
23729;DHT22;12045;60.214;24.724;2022-12-29T06:31:01;2.60;99.90
23729;DHT22;12045;60.214;24.724;2022-12-29T06:33:29;2.60;99.90
23729;DHT22;12045;60.214;24.724;2022-12-29T06:35:57;3.10;99.90
23729;DHT22;12045;60.214;24.724;2022-12-29T06:38:24;2.90;99.90
23729;DHT22;12045;60.214;24.724;2022-12-29T06:40:52;2.90;99.90
23729;DHT22;12045;60.214;24.724;2022-12-29T06:43:19;2.40;99.90
23729;DHT22;12045;60.214;24.724;2022-12-29T06:45:46;1.50;99.90
23729;DHT22;12045;60.214;24.724;2022-12-29T06:48:15;2.20;99.90
23729;DHT22;12045;60.214;24.724;2022-12-29T06:50:43;2.50;99.90
23729;DHT22;12045;60.214;24.724;2022-12-29T06:53:10;2.00;99.90
23729;DHT22;12045;60.214;24.724;2022-12-29T06:55:38;2.40;99.90
23729;DHT22;12045;60.214;24.724;2022-12-29T06:58:05;3.20;99.90
23729;DHT22;12045;60.214;24.724;2022-12-29T07:00:33;2.40;99.90
23729;DHT22;12045;60.214;24.724;2022-12-29T07:03:00;1.70;99.90
23729;DHT22;12045;60.214;24.724;2022-12-29T07:05:29;1.80;99.90
23729;DHT22;12045;60.214;24.724;2022-12-29T07:07:59;1.50;99.90
23729;DHT22;12045;60.214;24.724;2022-12-29T07:10:27;2.40;99.90
23729;DHT22;12045;60.214;24.724;2022-12-29T07:12:54;2.70;99.90
23729;DHT22;12045;60.214;24.724;2022-12-29T07:15:22;2.50;99.90
23729;DHT22;12045;60.214;24.724;2022-12-29T07:17:49;3.40;99.90
23729;DHT22;12045;60.214;24.724;2022-12-29T07:20:17;2.30;99.90
23729;DHT22;12045;60.214;24.724;2022-12-29T07:22:52;1.80;99.90
23729;DHT22;12045;60.214;24.724;2022-12-29T07:25:20;3.10;99.90
23729;DHT22;12045;60.214;24.724;2022-12-29T07:27:48;1.70;99.90
23729;DHT22;12045;60.214;24.724;2022-12-29T07:30:16;3.80;99.90
23729;DHT22;12045;60.214;24.724;2022-12-29T07:32:43;2.20;99.90
23729;DHT22;12045;60.214;24.724;2022-12-29T07:35:11;1.90;99.90
23729;DHT22;12045;60.214;24.724;2022-12-29T07:37:39;1.80;99.90
23729;DHT22;12045;60.214;24.724;2022-12-29T07:40:07;1.80;99.90
23729;DHT22;12045;60.214;24.724;2022-12-29T07:42:34;1.90;99.90
23729;DHT22;12045;60.214;24.724;2022-12-29T07:45:02;3.50;99.90
23729;DHT22;12045;60.214;24.724;2022-12-29T07:47:30;1.90;99.90
23729;DHT22;12045;60.214;24.724;2022-12-29T07:49:57;2.00;99.90
23729;DHT22;12045;60.214;24.724;2022-12-29T07:52:25;3.30;99.90
23729;DHT22;12045;60.214;24.724;2022-12-29T07:54:52;2.70;99.90
23729;DHT22;12045;60.214;24.724;2022-12-29T07:57:20;2.50;99.90
23729;DHT22;12045;60.214;24.724;2022-12-29T07:59:54;2.90;99.90
23729;DHT22;12045;60.214;24.724;2022-12-29T08:02:21;2.50;99.90
23729;DHT22;12045;60.214;24.724;2022-12-29T08:04:49;1.20;99.90
23729;DHT22;12045;60.214;24.724;2022-12-29T08:07:17;1.90;99.90
23729;DHT22;12045;60.214;24.724;2022-12-29T08:09:44;1.60;99.90
23729;DHT22;12045;60.214;24.724;2022-12-29T08:12:12;1.80;99.90
23729;DHT22;12045;60.214;24.724;2022-12-29T08:14:39;1.80;99.90
23729;DHT22;12045;60.214;24.724;2022-12-29T08:17:07;1.80;99.90
23729;DHT22;12045;60.214;24.724;2022-12-29T08:19:34;1.20;99.90
23729;DHT22;12045;60.214;24.724;2022-12-29T08:22:02;2.30;99.90
23729;DHT22;12045;60.214;24.724;2022-12-29T08:24:29;1.90;99.90
23729;DHT22;12045;60.214;24.724;2022-12-29T08:26:57;2.20;99.90
23729;DHT22;12045;60.214;24.724;2022-12-29T08:29:24;1.80;99.90
23729;DHT22;12045;60.214;24.724;2022-12-29T08:31:52;2.40;99.90
23729;DHT22;12045;60.214;24.724;2022-12-29T08:34:19;2.50;99.90
23729;DHT22;12045;60.214;24.724;2022-12-29T08:36:47;2.70;99.90
23729;DHT22;12045;60.214;24.724;2022-12-29T08:39:14;2.10;99.90
23729;DHT22;12045;60.214;24.724;2022-12-29T08:41:42;2.70;99.90
23729;DHT22;12045;60.214;24.724;2022-12-29T08:44:10;2.60;99.90
23729;DHT22;12045;60.214;24.724;2022-12-29T08:46:37;2.00;99.90
23729;DHT22;12045;60.214;24.724;2022-12-29T08:49:05;1.90;99.90
23729;DHT22;12045;60.214;24.724;2022-12-29T08:51:33;2.30;99.90
23729;DHT22;12045;60.214;24.724;2022-12-29T08:54:03;2.30;99.90
23729;DHT22;12045;60.214;24.724;2022-12-29T08:56:31;1.60;99.90
23729;DHT22;12045;60.214;24.724;2022-12-29T08:58:58;1.80;99.90
23729;DHT22;12045;60.214;24.724;2022-12-29T09:01:26;2.80;99.90
23729;DHT22;12045;60.214;24.724;2022-12-29T09:03:54;1.80;99.90
23729;DHT22;12045;60.214;24.724;2022-12-29T09:06:42;2.70;99.90
23729;DHT22;12045;60.214;24.724;2022-12-29T09:09:10;1.70;99.90
23729;DHT22;12045;60.214;24.724;2022-12-29T09:11:38;1.80;99.90
23729;DHT22;12045;60.214;24.724;2022-12-29T09:14:06;2.30;99.90
23729;DHT22;12045;60.214;24.724;2022-12-29T09:16:34;2.30;99.90
23729;DHT22;12045;60.214;24.724;2022-12-29T09:19:02;1.90;99.90
23729;DHT22;12045;60.214;24.724;2022-12-29T09:21:30;1.90;99.90
23729;DHT22;12045;60.214;24.724;2022-12-29T09:23:57;1.50;99.90
23729;DHT22;12045;60.214;24.724;2022-12-29T09:26:25;1.80;99.90
23729;DHT22;12045;60.214;24.724;2022-12-29T09:28:52;1.90;99.90
23729;DHT22;12045;60.214;24.724;2022-12-29T09:31:20;2.20;99.90
23729;DHT22;12045;60.214;24.724;2022-12-29T09:33:47;2.60;99.90
23729;DHT22;12045;60.214;24.724;2022-12-29T09:36:15;2.50;99.90
23729;DHT22;12045;60.214;24.724;2022-12-29T09:38:42;2.70;99.90
23729;DHT22;12045;60.214;24.724;2022-12-29T09:41:38;2.90;99.90
23729;DHT22;12045;60.214;24.724;2022-12-29T09:44:55;1.90;99.90
23729;DHT22;12045;60.214;24.724;2022-12-29T09:47:25;1.90;99.90
23729;DHT22;12045;60.214;24.724;2022-12-29T09:49:56;1.40;99.90
23729;DHT22;12045;60.214;24.724;2022-12-29T09:52:32;2.80;99.90
23729;DHT22;12045;60.214;24.724;2022-12-29T09:57:59;1.50;99.90
23729;DHT22;12045;60.214;24.724;2022-12-29T10:00:39;2.10;99.90
23729;DHT22;12045;60.214;24.724;2022-12-29T10:03:22;1.60;99.90
23729;DHT22;12045;60.214;24.724;2022-12-29T10:19:53;2.20;99.90
23729;DHT22;12045;60.214;24.724;2022-12-29T10:25:25;1.60;99.90
23729;DHT22;12045;60.214;24.724;2022-12-29T10:28:03;3.00;99.90
23729;DHT22;12045;60.214;24.724;2022-12-29T10:30:33;1.80;99.90
23729;DHT22;12045;60.214;24.724;2022-12-29T10:33:07;2.30;99.90
23729;DHT22;12045;60.214;24.724;2022-12-29T10:35:39;1.80;99.90
23729;DHT22;12045;60.214;24.724;2022-12-29T10:40:56;2.20;99.90
23729;DHT22;12045;60.214;24.724;2022-12-29T10:43:29;1.70;99.90
23729;DHT22;12045;60.214;24.724;2022-12-29T10:46:01;2.70;99.90
23729;DHT22;12045;60.214;24.724;2022-12-29T10:48:32;2.70;99.90
23729;DHT22;12045;60.214;24.724;2022-12-29T10:51:02;1.90;99.90
23729;DHT22;12045;60.214;24.724;2022-12-29T10:53:57;2.10;99.90
23729;DHT22;12045;60.214;24.724;2022-12-29T10:56:34;1.40;99.90
23729;DHT22;12045;60.214;24.724;2022-12-29T10:59:33;2.90;99.90
23729;DHT22;12045;60.214;24.724;2022-12-29T11:07:07;1.80;99.90
23729;DHT22;12045;60.214;24.724;2022-12-29T11:09:44;2.40;99.90
23729;DHT22;12045;60.214;24.724;2022-12-29T11:12:29;3.10;99.90
23729;DHT22;12045;60.214;24.724;2022-12-29T11:15:15;2.10;99.90
23729;DHT22;12045;60.214;24.724;2022-12-29T11:20:37;3.00;99.90
23729;DHT22;12045;60.214;24.724;2022-12-29T11:23:37;1.80;99.90
23729;DHT22;12045;60.214;24.724;2022-12-29T11:28:41;2.30;99.90
23729;DHT22;12045;60.214;24.724;2022-12-29T11:31:09;1.80;99.90
23729;DHT22;12045;60.214;24.724;2022-12-29T11:33:38;2.30;99.90
23729;DHT22;12045;60.214;24.724;2022-12-29T11:36:18;2.10;99.90
23729;DHT22;12045;60.214;24.724;2022-12-29T11:38:54;2.90;99.90
23729;DHT22;12045;60.214;24.724;2022-12-29T11:41:25;2.90;99.90
23729;DHT22;12045;60.214;24.724;2022-12-29T11:43:56;2.00;99.90
23729;DHT22;12045;60.214;24.724;2022-12-29T11:46:30;1.90;99.90
23729;DHT22;12045;60.214;24.724;2022-12-29T11:48:59;3.30;99.90
23729;DHT22;12045;60.214;24.724;2022-12-29T11:51:45;3.70;99.90
23729;DHT22;12045;60.214;24.724;2022-12-29T11:54:21;1.80;99.90
23729;DHT22;12045;60.214;24.724;2022-12-29T11:56:50;3.00;99.90
23729;DHT22;12045;60.214;24.724;2022-12-29T12:01:58;1.80;99.90
23729;DHT22;12045;60.214;24.724;2022-12-29T12:04:30;2.20;99.90
23729;DHT22;12045;60.214;24.724;2022-12-29T12:10:00;3.20;99.90
23729;DHT22;12045;60.214;24.724;2022-12-29T12:13:08;2.50;99.90
23729;DHT22;12045;60.214;24.724;2022-12-29T12:15:44;1.80;99.90
23729;DHT22;12045;60.214;24.724;2022-12-29T12:18:30;2.80;99.90
23729;DHT22;12045;60.214;24.724;2022-12-29T12:21:38;2.70;99.90
23729;DHT22;12045;60.214;24.724;2022-12-29T12:27:09;1.80;99.90
23729;DHT22;12045;60.214;24.724;2022-12-29T12:29:56;2.40;99.90
23729;DHT22;12045;60.214;24.724;2022-12-29T12:32:48;1.70;99.90
23729;DHT22;12045;60.214;24.724;2022-12-29T12:35:43;1.90;99.90
23729;DHT22;12045;60.214;24.724;2022-12-29T12:46:35;1.80;99.90
23729;DHT22;12045;60.214;24.724;2022-12-29T12:52:08;1.70;99.90
23729;DHT22;12045;60.214;24.724;2022-12-29T13:01:00;1.80;99.90
23729;DHT22;12045;60.214;24.724;2022-12-29T13:06:26;1.70;99.90
23729;DHT22;12045;60.214;24.724;2022-12-29T13:09:27;2.80;99.90
23729;DHT22;12045;60.214;24.724;2022-12-29T13:15:16;2.80;99.90
23729;DHT22;12045;60.214;24.724;2022-12-29T13:17:46;1.90;99.90
23729;DHT22;12045;60.214;24.724;2022-12-29T13:23:21;1.90;99.90
23729;DHT22;12045;60.214;24.724;2022-12-29T13:28:37;2.10;99.90
23729;DHT22;12045;60.214;24.724;2022-12-29T13:31:32;2.80;99.90
23729;DHT22;12045;60.214;24.724;2022-12-29T13:36:46;2.30;99.90
23729;DHT22;12045;60.214;24.724;2022-12-29T13:39:33;2.30;99.90
23729;DHT22;12045;60.214;24.724;2022-12-29T13:42:02;1.40;99.90
23729;DHT22;12045;60.214;24.724;2022-12-29T13:44:34;1.80;99.90
23729;DHT22;12045;60.214;24.724;2022-12-29T13:49:58;1.90;99.90
23729;DHT22;12045;60.214;24.724;2022-12-29T13:55:45;1.70;99.90
23729;DHT22;12045;60.214;24.724;2022-12-29T13:58:37;2.30;99.90
23729;DHT22;12045;60.214;24.724;2022-12-29T14:01:28;1.90;99.90
23729;DHT22;12045;60.214;24.724;2022-12-29T14:03:59;2.00;99.90
23729;DHT22;12045;60.214;24.724;2022-12-29T14:06:33;1.90;99.90
23729;DHT22;12045;60.214;24.724;2022-12-29T14:09:26;2.00;99.90
23729;DHT22;12045;60.214;24.724;2022-12-29T14:12:01;3.60;99.90
23729;DHT22;12045;60.214;24.724;2022-12-29T14:14:30;3.00;99.90
23729;DHT22;12045;60.214;24.724;2022-12-29T14:17:11;3.70;99.90
23729;DHT22;12045;60.214;24.724;2022-12-29T14:19:43;3.10;99.90
23729;DHT22;12045;60.214;24.724;2022-12-29T14:22:12;2.60;99.90
23729;DHT22;12045;60.214;24.724;2022-12-29T14:24:42;2.50;99.90
23729;DHT22;12045;60.214;24.724;2022-12-29T14:35:00;2.80;99.90
23729;DHT22;12045;60.214;24.724;2022-12-29T14:37:47;3.40;99.90
23729;DHT22;12045;60.214;24.724;2022-12-29T14:40:31;2.80;99.90
23729;DHT22;12045;60.214;24.724;2022-12-29T14:43:00;2.40;99.90
23729;DHT22;12045;60.214;24.724;2022-12-29T14:45:29;2.80;99.90
23729;DHT22;12045;60.214;24.724;2022-12-29T14:48:00;2.70;99.90
23729;DHT22;12045;60.214;24.724;2022-12-29T14:50:41;2.90;99.90
23729;DHT22;12045;60.214;24.724;2022-12-29T14:53:43;2.10;99.90
23729;DHT22;12045;60.214;24.724;2022-12-29T14:56:12;2.10;99.90
23729;DHT22;12045;60.214;24.724;2022-12-29T14:58:47;3.40;99.90
23729;DHT22;12045;60.214;24.724;2022-12-29T15:03:57;2.10;99.90
23729;DHT22;12045;60.214;24.724;2022-12-29T15:06:29;4.00;99.90
23729;DHT22;12045;60.214;24.724;2022-12-29T15:09:10;3.90;99.90
23729;DHT22;12045;60.214;24.724;2022-12-29T15:11:48;2.20;99.90
23729;DHT22;12045;60.214;24.724;2022-12-29T15:14:36;2.20;99.90
23729;DHT22;12045;60.214;24.724;2022-12-29T15:17:29;2.80;99.90
23729;DHT22;12045;60.214;24.724;2022-12-29T15:19:59;2.20;99.90
23729;DHT22;12045;60.214;24.724;2022-12-29T15:22:27;2.40;99.90
23729;DHT22;12045;60.214;24.724;2022-12-29T15:24:55;3.10;99.90
23729;DHT22;12045;60.214;24.724;2022-12-29T15:27:25;3.60;99.90
23729;DHT22;12045;60.214;24.724;2022-12-29T15:29:58;3.40;99.90
23729;DHT22;12045;60.214;24.724;2022-12-29T15:32:27;3.60;99.90
23729;DHT22;12045;60.214;24.724;2022-12-29T15:34:57;1.60;99.90
23729;DHT22;12045;60.214;24.724;2022-12-29T15:37:32;2.90;99.90
23729;DHT22;12045;60.214;24.724;2022-12-29T15:40:01;2.80;99.90
23729;DHT22;12045;60.214;24.724;2022-12-29T15:45:33;2.30;99.90
23729;DHT22;12045;60.214;24.724;2022-12-29T15:48:02;3.20;99.90
23729;DHT22;12045;60.214;24.724;2022-12-29T15:50:32;2.20;99.90
23729;DHT22;12045;60.214;24.724;2022-12-29T15:53:02;2.70;99.90
23729;DHT22;12045;60.214;24.724;2022-12-29T15:55:36;2.90;99.90
23729;DHT22;12045;60.214;24.724;2022-12-29T15:58:21;3.10;99.90
23729;DHT22;12045;60.214;24.724;2022-12-29T16:00:52;2.30;99.90
23729;DHT22;12045;60.214;24.724;2022-12-29T16:03:21;3.20;99.90
23729;DHT22;12045;60.214;24.724;2022-12-29T16:05:55;3.90;99.90
23729;DHT22;12045;60.214;24.724;2022-12-29T16:08:35;2.60;99.90
23729;DHT22;12045;60.214;24.724;2022-12-29T16:11:24;3.00;99.90
23729;DHT22;12045;60.214;24.724;2022-12-29T16:13:53;3.40;99.90
23729;DHT22;12045;60.214;24.724;2022-12-29T16:16:28;2.70;99.90
23729;DHT22;12045;60.214;24.724;2022-12-29T16:18:57;2.40;99.90
23729;DHT22;12045;60.214;24.724;2022-12-29T16:21:32;2.80;99.90
23729;DHT22;12045;60.214;24.724;2022-12-29T16:24:04;2.90;99.90
23729;DHT22;12045;60.214;24.724;2022-12-29T16:26:33;2.30;99.90
23729;DHT22;12045;60.214;24.724;2022-12-29T16:29:04;3.10;99.90
23729;DHT22;12045;60.214;24.724;2022-12-29T16:34:19;3.10;99.90
23729;DHT22;12045;60.214;24.724;2022-12-29T16:36:57;2.40;99.90
23729;DHT22;12045;60.214;24.724;2022-12-29T16:41:54;2.60;99.90
23729;DHT22;12045;60.214;24.724;2022-12-29T16:44:30;2.70;99.90
23729;DHT22;12045;60.214;24.724;2022-12-29T16:47:16;2.40;99.90
23729;DHT22;12045;60.214;24.724;2022-12-29T16:49:50;2.70;99.90
23729;DHT22;12045;60.214;24.724;2022-12-29T16:52:25;3.60;99.90
23729;DHT22;12045;60.214;24.724;2022-12-29T16:54:59;2.90;99.90
23729;DHT22;12045;60.214;24.724;2022-12-29T16:57:33;3.70;99.90
23729;DHT22;12045;60.214;24.724;2022-12-29T17:00:07;3.50;99.90
23729;DHT22;12045;60.214;24.724;2022-12-29T17:02:35;2.30;99.90
23729;DHT22;12045;60.214;24.724;2022-12-29T17:05:16;3.20;99.90
23729;DHT22;12045;60.214;24.724;2022-12-29T17:07:45;2.30;99.90
23729;DHT22;12045;60.214;24.724;2022-12-29T17:10:13;3.10;99.90
23729;DHT22;12045;60.214;24.724;2022-12-29T17:12:47;2.10;99.90
23729;DHT22;12045;60.214;24.724;2022-12-29T17:17:53;2.10;99.90
23729;DHT22;12045;60.214;24.724;2022-12-29T17:20:25;3.00;99.90
23729;DHT22;12045;60.214;24.724;2022-12-29T17:22:53;2.70;99.90
23729;DHT22;12045;60.214;24.724;2022-12-29T17:25:25;3.50;99.90
23729;DHT22;12045;60.214;24.724;2022-12-29T17:28:02;3.00;99.90
23729;DHT22;12045;60.214;24.724;2022-12-29T17:30:32;2.50;99.90
23729;DHT22;12045;60.214;24.724;2022-12-29T17:33:06;1.80;99.90
23729;DHT22;12045;60.214;24.724;2022-12-29T17:35:36;3.50;99.90
23729;DHT22;12045;60.214;24.724;2022-12-29T17:38:20;3.30;99.90
23729;DHT22;12045;60.214;24.724;2022-12-29T17:40:48;1.90;99.90
23729;DHT22;12045;60.214;24.724;2022-12-29T17:43:16;2.60;99.90
23729;DHT22;12045;60.214;24.724;2022-12-29T17:48:47;1.70;99.90
23729;DHT22;12045;60.214;24.724;2022-12-29T17:52:10;1.80;99.90
23729;DHT22;12045;60.214;24.724;2022-12-29T17:58:40;1.80;99.90
23729;DHT22;12045;60.214;24.724;2022-12-29T18:01:56;1.80;99.90
23729;DHT22;12045;60.214;24.724;2022-12-29T18:05:30;1.70;99.90
23729;DHT22;12045;60.214;24.724;2022-12-29T18:09:14;2.30;99.90
23729;DHT22;12045;60.214;24.724;2022-12-29T18:15:35;1.80;99.90
23729;DHT22;12045;60.214;24.724;2022-12-29T18:18:12;1.70;99.90
23729;DHT22;12045;60.214;24.724;2022-12-29T18:20:41;2.30;99.90
23729;DHT22;12045;60.214;24.724;2022-12-29T18:23:25;3.00;99.90
23729;DHT22;12045;60.214;24.724;2022-12-29T18:25:56;2.80;99.90
23729;DHT22;12045;60.214;24.724;2022-12-29T18:28:25;2.60;99.90
23729;DHT22;12045;60.214;24.724;2022-12-29T18:30:55;2.50;99.90